Time;durP1;ratioP1;P1;durP2;ratioP2;P2;SDS_P1;SDS_P2;PMS_P1;PMS_P2;Temp;Humidity;BMP_temperature;BMP_pressure;BME280_temperature;BME280_humidity;BME280_pressure;Samples;Min_cycle;Max_cycle;Signal;HPM_P1;HPM_P2
2022/11/02 00:02:19;;;;;;;86.37;45.05;;;;;;;4.32;59.32;100452.89;1820386;78;21004;-70
2022/11/02 00:04:46;;;;;;;94.22;47.05;;;;;;;4.31;59.39;100455.13;1820179;78;21411;-70
2022/11/02 00:07:12;;;;;;;83.92;45.48;;;;;;;4.29;59.46;100448.67;1820571;78;20985;-70
2022/11/02 00:09:40;;;;;;;84.47;45.83;;;;;;;4.29;59.48;100436.06;1820475;78;21820;-70
2022/11/02 00:12:07;;;;;;;83.22;45.12;;;;;;;4.24;59.59;100435.45;1820651;78;20981;-72
2022/11/02 00:14:34;;;;;;;82.65;43.23;;;;;;;4.21;59.81;100422.55;1819422;78;20939;-70
2022/11/02 00:17:02;;;;;;;78.10;42.48;;;;;;;4.20;59.96;100420.86;1820362;78;21479;-70
2022/11/02 00:19:29;;;;;;;83.50;43.10;;;;;;;4.19;60.08;100420.02;1820274;78;21477;-71
2022/11/02 00:21:57;;;;;;;81.53;43.52;;;;;;;4.20;60.25;100416.94;1820327;78;21839;-70
2022/11/02 00:24:24;;;;;;;76.33;44.55;;;;;;;4.20;60.32;100411.25;1820268;78;21423;-70
2022/11/02 00:26:50;;;;;;;78.22;45.35;;;;;;;4.19;60.32;100408.25;1820349;78;21331;-70
2022/11/02 00:29:17;;;;;;;77.87;43.33;;;;;;;4.18;60.32;100410.48;1789118;78;21544;-70
2022/11/02 00:31:43;;;;;;;86.53;42.80;;;;;;;4.17;60.21;100410.57;1819734;78;20976;-70
2022/11/02 00:34:11;;;;;;;76.92;42.40;;;;;;;4.16;60.29;100414.95;1803960;79;21887;-70
2022/11/02 00:36:38;;;;;;;74.58;38.35;;;;;;;4.20;60.33;100403.86;1803966;79;21476;-70
2022/11/02 00:39:05;;;;;;;65.05;37.50;;;;;;;4.23;60.16;100395.39;1803980;79;20974;-70
2022/11/02 00:41:31;;;;;;;64.55;35.90;;;;;;;4.23;60.12;100390.63;1803837;79;20986;-71
2022/11/02 00:43:58;;;;;;;65.32;34.85;;;;;;;4.27;60.20;100396.09;1803990;79;20994;-70
2022/11/02 00:46:25;;;;;;;69.67;32.42;;;;;;;4.30;60.35;100388.91;1803847;79;22347;-70
2022/11/02 00:48:52;;;;;;;62.75;33.30;;;;;;;4.33;60.12;100394.44;1783765;79;20987;-71
2022/11/02 00:51:19;;;;;;;66.02;35.35;;;;;;;4.36;59.96;100385.14;1804027;79;21472;-70
2022/11/02 00:53:45;;;;;;;61.77;33.88;;;;;;;4.39;59.78;100381.05;1803879;79;21854;-70
2022/11/02 00:56:11;;;;;;;63.15;33.95;;;;;;;4.41;59.67;100384.41;1803931;79;20942;-70
2022/11/02 00:58:39;;;;;;;62.45;33.40;;;;;;;4.42;59.72;100382.64;1803821;79;22309;-70
2022/11/02 01:01:06;;;;;;;61.58;31.62;;;;;;;4.44;59.67;100378.17;1804053;79;21023;-70
2022/11/02 01:03:33;;;;;;;59.23;31.95;;;;;;;4.45;59.55;100369.42;1803843;79;21010;-70
2022/11/02 01:06:10;;;;;;;54.77;30.70;;;;;;;4.46;59.40;100371.95;1803763;79;20962;-70
2022/11/02 01:08:37;;;;;;;50.70;29.32;;;;;;;4.48;59.37;100367.48;1803853;79;21009;-71
2022/11/02 01:11:17;;;;;;;56.85;30.65;;;;;;;4.51;59.29;100367.77;1803805;79;21776;-70
2022/11/02 01:13:44;;;;;;;53.33;28.57;;;;;;;4.51;59.16;100356.84;1803489;79;21398;-70
2022/11/02 01:16:11;;;;;;;51.25;27.80;;;;;;;4.52;59.22;100364.22;1803867;79;20938;-70
2022/11/02 01:18:38;;;;;;;50.08;29.00;;;;;;;4.55;59.30;100364.07;1803801;79;21480;-70
2022/11/02 01:21:06;;;;;;;51.92;27.73;;;;;;;4.56;59.31;100356.60;1803887;79;21025;-70
2022/11/02 01:23:35;;;;;;;58.48;29.27;;;;;;;4.58;59.08;100354.27;1803685;79;22256;-71
2022/11/02 01:26:03;;;;;;;50.35;27.20;;;;;;;4.59;58.96;100358.58;1803679;79;20919;-70
2022/11/02 01:28:31;;;;;;;57.67;27.67;;;;;;;4.61;58.90;100359.79;1803898;79;20958;-70
2022/11/02 01:30:58;;;;;;;50.23;26.42;;;;;;;4.63;58.75;100361.85;1803828;79;20983;-71
2022/11/02 01:33:26;;;;;;;47.50;26.87;;;;;;;4.65;58.71;100359.18;1813519;78;20937;-70
2022/11/02 01:35:54;;;;;;;49.05;26.95;;;;;;;4.68;58.73;100366.85;1819101;78;22542;-71
2022/11/02 01:38:22;;;;;;;47.62;25.60;;;;;;;4.69;58.55;100368.06;1816637;78;20938;-70
2022/11/02 01:40:49;;;;;;;49.58;28.00;;;;;;;4.69;58.42;100355.45;1804542;78;21031;-70
2022/11/02 01:43:23;;;;;;;54.83;29.98;;;;;;;4.67;58.45;100354.23;1788098;80;21035;-70
2022/11/02 01:46:02;;;;;;;51.40;27.85;;;;;;;4.67;58.51;100354.70;1757516;80;21287;-70
2022/11/02 01:48:36;;;;;;;53.15;28.83;;;;;;;4.66;58.59;100360.40;1788076;80;23137;-70
2022/11/02 01:51:10;;;;;;;51.88;27.77;;;;;;;4.66;58.50;100361.70;1757293;80;20947;-71
2022/11/02 01:53:40;;;;;;;51.23;27.98;;;;;;;4.67;58.67;100354.23;1788162;80;21003;-70
2022/11/02 01:56:07;;;;;;;56.13;28.50;;;;;;;4.66;58.46;100353.86;1815085;78;21314;-70
2022/11/02 01:58:35;;;;;;;55.12;29.35;;;;;;;4.68;58.30;100355.08;1820495;78;21546;-70
2022/11/02 02:01:02;;;;;;;49.23;27.00;;;;;;;4.71;58.29;100353.59;1820486;78;22343;-70
2022/11/02 02:03:30;;;;;;;57.58;28.70;;;;;;;4.74;58.30;100349.52;1820230;78;20992;-71
2022/11/02 02:06:04;;;;;;;49.85;28.25;;;;;;;4.76;58.57;100356.34;1820614;78;21192;-70
2022/11/02 02:08:30;;;;;;;;;;;;;;;4.77;58.79;100343.63;1823171;78;20936;-70
2022/11/02 02:10:57;;;;;;;47.15;27.42;;;;;;;4.79;58.63;100337.00;1820778;78;20158;-70
2022/11/02 02:13:26;;;;;;;51.85;26.95;;;;;;;4.81;58.53;100336.45;1820277;78;21820;-77
2022/11/02 02:16:35;;;;;;;45.85;26.30;;;;;;;4.80;58.64;100331.68;1788894;78;21421;-70
2022/11/02 02:19:07;;;;;;;48.38;26.50;;;;;;;4.79;58.76;100323.92;1807161;78;21392;-70
2022/11/02 02:21:41;;;;;;;47.23;26.05;;;;;;;4.73;58.75;100315.97;1820759;78;20937;-70
2022/11/02 02:24:31;;;;;;;;;;;;;;;4.75;58.72;100317.19;1791408;78;21005;-70
2022/11/02 02:27:17;;;;;;;51.77;25.50;;;;;;;4.76;58.66;100311.86;1820878;78;21810;-69
2022/11/02 02:30:02;;;;;;;47.33;25.85;;;;;;;4.75;58.58;100301.02;1820234;78;20969;-69
2022/11/02 02:32:59;;;;;;;49.55;26.82;;;;;;;4.78;58.45;100307.84;1811938;78;20973;-70
2022/11/02 02:35:31;;;;;;;46.68;25.08;;;;;;;4.80;58.37;100308.59;1789096;79;21048;-70
2022/11/02 02:38:00;;;;;;;43.42;24.63;;;;;;;4.81;58.18;100312.89;1812116;79;21064;-70
2022/11/02 02:40:46;;;;;;;51.02;25.77;;;;;;;4.83;58.20;100300.59;1814922;79;21924;-70
2022/11/02 02:43:28;;;;;;;50.05;26.70;;;;;;;4.85;58.16;100302.65;1811661;79;20985;-70
2022/11/02 02:46:05;;;;;;;45.80;26.05;;;;;;;4.87;58.07;100302.09;1811897;79;21009;-70
2022/11/02 02:48:32;;;;;;;44.83;25.00;;;;;;;4.87;57.92;100295.08;1811928;79;20997;-69
2022/11/02 02:51:03;;;;;;;44.95;25.80;;;;;;;4.88;57.79;100294.61;1789398;79;21480;-70
2022/11/02 02:53:47;;;;;;;45.52;24.80;;;;;;;4.85;57.79;100283.02;1812086;79;21785;-70
2022/11/02 02:56:16;;;;;;;41.08;24.23;;;;;;;4.82;57.83;100279.25;1811694;79;20938;-70
2022/11/02 02:58:51;;;;;;;44.70;23.47;;;;;;;4.79;57.86;100285.51;1812008;79;20947;-70
2022/11/02 03:01:18;;;;;;;44.25;23.95;;;;;;;4.77;57.87;100274.77;1809320;79;21492;-69
2022/11/02 03:03:45;;;;;;;40.35;21.80;;;;;;;4.77;57.93;100278.22;1811612;79;21049;-70
2022/11/02 03:06:17;;;;;;;41.25;20.82;;;;;;;4.80;57.89;100281.12;1811446;79;21765;-70
2022/11/02 03:09:08;;;;;;;39.45;21.05;;;;;;;4.81;57.76;100278.88;1811774;79;21534;-70
2022/11/02 03:11:48;;;;;;;38.50;22.10;;;;;;;4.82;57.67;100277.94;1792994;79;21079;-70
2022/11/02 03:14:46;;;;;;;36.42;20.37;;;;;;;4.83;57.61;100271.34;1811457;79;20941;-70
2022/11/02 03:17:22;;;;;;;38.38;20.30;;;;;;;4.84;57.49;100267.78;1812032;79;21362;-70
2022/11/02 03:20:25;;;;;;;39.65;20.97;;;;;;;4.86;57.28;100266.39;1811724;79;22053;-70
2022/11/02 03:23:13;;;;;;;40.38;20.37;;;;;;;4.84;57.25;100261.25;1811640;79;20867;-70
2022/11/02 03:26:08;;;;;;;39.00;20.17;;;;;;;4.83;57.22;100259.56;1811663;79;20945;-70
2022/11/02 03:29:01;;;;;;;33.55;19.45;;;;;;;4.80;57.23;100255.80;1815673;79;20993;-70
2022/11/02 03:31:36;;;;;;;35.95;20.50;;;;;;;4.79;57.29;100258.03;1812246;79;20978;-71
2022/11/02 03:34:08;;;;;;;37.40;19.90;;;;;;;4.77;57.38;100248.59;1808439;79;21845;-70
2022/11/02 03:36:55;;;;;;;32.42;18.80;;;;;;;4.78;57.44;100247.66;1794453;79;21020;-70
2022/11/02 03:39:28;;;;;;;35.85;18.50;;;;;;;4.78;57.71;100247.20;1806303;78;20939;-70
2022/11/02 03:41:55;;;;;;;37.63;20.02;;;;;;;4.77;58.09;100243.36;1806796;79;21083;-70
2022/11/02 03:44:23;;;;;;;33.63;19.10;;;;;;;4.75;58.19;100237.37;1810574;79;21456;-70
2022/11/02 03:46:53;;;;;;;32.23;17.98;;;;;;;4.74;58.25;100233.92;1806399;79;22241;-70
2022/11/02 03:49:19;;;;;;;32.40;17.37;;;;;;;4.73;58.35;100237.47;1784263;79;20953;-70
2022/11/02 03:51:47;;;;;;;34.63;18.55;;;;;;;4.72;58.58;100231.84;1806193;79;21029;-71
2022/11/02 03:54:42;;;;;;;33.00;17.12;;;;;;;4.71;58.69;100237.16;1810358;78;21570;-70
2022/11/02 03:57:12;;;;;;;30.15;17.30;;;;;;;4.69;58.86;100237.72;1806189;79;21068;-69
2022/11/02 03:59:39;;;;;;;30.65;16.90;;;;;;;4.59;58.68;100233.02;1805455;79;21564;-70
2022/11/02 04:02:06;;;;;;;30.52;17.80;;;;;;;4.47;58.73;100225.03;1806375;79;21484;-70
2022/11/02 04:04:32;;;;;;;32.73;17.55;;;;;;;4.40;58.84;100221.91;1783976;79;20989;-70
2022/11/02 04:07:00;;;;;;;31.02;17.70;;;;;;;4.38;58.95;100225.08;1806175;79;20994;-70
2022/11/02 04:09:28;;;;;;;32.95;17.15;;;;;;;4.38;59.07;100221.16;1806341;79;21477;-70
2022/11/02 04:14:40;;;;;;;27.87;16.15;;;;;;;4.22;59.75;100226.86;1806317;79;20990;-71
2022/11/02 04:19:55;;;;;;;29.48;17.32;;;;;;;4.11;60.30;100235.76;1806451;78;20959;-70
2022/11/02 04:25:14;;;;;;;30.20;16.67;;;;;;;4.13;60.88;100229.97;1806234;78;22450;-70
2022/11/02 04:27:49;;;;;;;32.03;17.25;;;;;;;4.14;61.14;100236.89;1805654;78;20974;-69
2022/11/02 04:30:18;;;;;;;28.23;17.30;;;;;;;4.12;61.45;100234.83;1806315;79;21021;-69
2022/11/02 04:35:36;;;;;;;27.55;15.53;;;;;;;4.10;61.80;100238.84;1805854;79;21049;-69
2022/11/02 04:41:40;;;;;;;27.00;15.23;;;;;;;4.10;61.93;100221.00;1804599;79;21032;-70
2022/11/02 04:43:16;;;;;;;24.82;15.25;;;;;;;4.08;61.91;100217.17;1772206;80;21040;-70
2022/11/02 04:45:43;;;;;;;34.83;16.87;;;;;;;4.03;61.85;100217.88;1795503;79;20926;-70
2022/11/02 04:48:09;;;;;;;32.80;15.88;;;;;;;4.01;62.01;100213.20;1805965;79;21497;-70
2022/11/02 04:50:39;;;;;;;29.20;15.53;;;;;;;4.01;62.14;100214.05;1806176;79;21855;-70
2022/11/02 04:53:08;;;;;;;32.53;16.37;;;;;;;3.96;62.29;100211.32;1806502;79;20934;-69
2022/11/02 04:55:37;;;;;;;27.45;15.95;;;;;;;3.94;62.39;100206.16;1806315;79;21065;-69
2022/11/02 04:58:04;;;;;;;30.00;16.97;;;;;;;3.96;62.46;100209.55;1806215;79;20990;-69
2022/11/02 05:00:31;;;;;;;28.47;16.25;;;;;;;3.95;62.55;100203.91;1806232;79;20946;-69
2022/11/02 05:02:58;;;;;;;28.12;16.27;;;;;;;3.91;62.61;100198.48;1806248;79;21924;-69
2022/11/02 05:05:26;;;;;;;31.07;17.02;;;;;;;3.87;62.72;100196.98;1784087;79;21559;-71
2022/11/02 05:07:54;;;;;;;28.15;16.62;;;;;;;3.85;62.83;100192.28;1806235;79;20961;-69
2022/11/02 05:10:21;;;;;;;34.85;17.35;;;;;;;3.85;62.99;100196.67;1806314;79;20959;-69
2022/11/02 05:12:50;;;;;;;28.02;17.00;;;;;;;3.85;63.13;100198.81;1806317;78;21037;-69
2022/11/02 05:15:16;;;;;;;30.57;17.25;;;;;;;3.86;63.20;100199.22;1782230;79;21975;-70
2022/11/02 05:17:49;;;;;;;29.57;17.62;;;;;;;3.87;63.22;100206.13;1806175;78;20974;-69
2022/11/02 05:20:15;;;;;;;34.50;17.82;;;;;;;3.87;63.26;100202.67;1806176;78;20994;-69
2022/11/02 05:22:43;;;;;;;32.45;17.25;;;;;;;3.88;63.32;100205.66;1806323;79;21001;-69
2022/11/02 05:25:12;;;;;;;59.65;37.90;;;;;;;3.89;63.37;100204.73;1784346;79;20938;-69
2022/11/02 05:27:38;;;;;;;46.65;27.48;;;;;;;3.91;63.53;100205.48;1806392;79;21731;-70
2022/11/02 05:30:06;;;;;;;60.63;38.50;;;;;;;3.92;63.60;100200.17;1806316;79;21500;-70
2022/11/02 05:32:33;;;;;;;48.02;32.00;;;;;;;3.97;63.59;100205.16;1806392;79;21318;-69
2022/11/02 05:35:00;;;;;;;38.55;23.47;;;;;;;4.01;63.64;100207.98;1810358;79;21021;-70
2022/11/02 05:37:27;;;;;;;39.35;23.57;;;;;;;4.06;63.62;100205.12;1811675;79;21006;-70
2022/11/02 05:39:57;;;;;;;37.00;22.35;;;;;;;4.08;63.62;100204.11;1811783;79;21933;-71
2022/11/02 05:42:24;;;;;;;39.67;22.50;;;;;;;4.15;63.63;100199.36;1810627;79;20921;-70
2022/11/02 05:44:51;;;;;;;33.45;22.52;;;;;;;4.21;63.61;100197.72;1810337;79;20949;-70
2022/11/02 05:47:18;;;;;;;36.35;21.70;;;;;;;4.29;63.63;100196.83;1787708;79;21000;-70
2022/11/02 05:49:45;;;;;;;31.48;20.20;;;;;;;4.37;63.61;100197.72;1810035;79;21746;-70
2022/11/02 05:52:12;;;;;;;40.30;21.80;;;;;;;4.45;63.53;100196.35;1809813;79;21729;-71
2022/11/02 05:54:38;;;;;;;36.73;21.02;;;;;;;4.55;63.52;100200.59;1811975;79;21001;-71
2022/11/02 05:57:04;;;;;;;40.25;20.82;;;;;;;4.62;63.43;100197.14;1811735;79;20919;-69
2022/11/02 05:59:32;;;;;;;39.45;20.40;;;;;;;4.71;63.35;100196.61;1811787;79;20958;-71
2022/11/02 06:01:58;;;;;;;38.70;21.40;;;;;;;4.81;63.13;100204.30;1780092;79;21485;-70
2022/11/02 06:04:25;;;;;;;36.85;20.40;;;;;;;4.91;62.91;100199.38;1811810;79;22405;-70
2022/11/02 06:06:51;;;;;;;37.45;20.88;;;;;;;5.02;62.68;100197.83;1779857;79;20850;-72
2022/11/02 06:09:18;;;;;;;37.48;20.62;;;;;;;5.14;62.48;100201.02;1811611;79;20994;-72
2022/11/02 06:11:46;;;;;;;33.23;20.70;;;;;;;5.24;62.31;100190.84;1811722;79;21079;-71
2022/11/02 06:14:13;;;;;;;38.38;21.25;;;;;;;5.34;62.16;100186.73;1812173;79;20950;-70
2022/11/02 06:16:41;;;;;;;35.17;22.00;;;;;;;5.45;62.07;100178.21;1811810;79;22479;-70
2022/11/02 06:19:07;;;;;;;36.75;22.10;;;;;;;5.57;61.88;100173.52;1811778;79;21025;-70
2022/11/02 06:21:34;;;;;;;37.13;23.18;;;;;;;5.68;61.71;100180.24;1811682;79;20942;-71
2022/11/02 06:24:00;;;;;;;37.42;22.37;;;;;;;5.82;61.64;100185.11;1811584;79;21063;-70
2022/11/02 06:26:27;;;;;;;39.35;21.10;;;;;;;5.97;61.61;100177.60;1811765;79;21083;-70
2022/11/02 06:28:54;;;;;;;32.67;18.92;;;;;;;6.12;61.52;100176.64;1811748;79;21777;-71
2022/11/02 06:31:21;;;;;;;29.02;16.60;;;;;;;6.26;61.28;100182.30;1811158;79;20850;-70
2022/11/02 06:33:47;;;;;;;30.92;16.52;;;;;;;6.38;60.97;100182.84;1812864;78;21041;-70
2022/11/02 06:36:14;;;;;;;22.30;13.30;;;;;;;6.52;60.90;100181.92;1820374;78;21000;-71
2022/11/02 06:38:40;;;;;;;20.65;12.50;;;;;;;6.66;60.33;100175.31;1820333;78;21025;-71
2022/11/02 06:41:08;;;;;;;24.52;12.28;;;;;;;6.82;59.68;100181.67;1820408;78;21875;-72
2022/11/02 06:43:37;;;;;;;312.90;31.35;;;;;;;6.92;59.16;100169.61;1820383;78;21045;-71
2022/11/02 06:46:04;;;;;;;18.95;11.95;;;;;;;7.03;59.02;100170.19;1788462;78;20985;-71
2022/11/02 06:48:31;;;;;;;18.48;11.75;;;;;;;7.11;58.98;100163.95;1820265;78;20981;-71
2022/11/02 06:50:58;;;;;;;17.60;10.88;;;;;;;7.19;58.81;100159.02;1820311;78;21479;-72
2022/11/02 06:53:25;;;;;;;18.50;10.10;;;;;;;7.22;58.60;100160.11;1820439;78;22421;-72
2022/11/02 06:55:53;;;;;;;14.93;10.15;;;;;;;7.25;58.44;100146.78;1820101;78;20950;-72
2022/11/02 06:58:22;;;;;;;17.67;10.40;;;;;;;7.29;58.24;100146.92;1820340;78;20969;-71
2022/11/02 07:00:49;;;;;;;15.32;9.80;;;;;;;7.33;58.07;100135.72;1820239;78;20990;-71
2022/11/02 07:03:16;;;;;;;16.42;10.28;;;;;;;7.38;58.28;100133.62;1820373;78;20941;-71
2022/11/02 07:05:50;;;;;;;25.05;10.15;;;;;;;7.46;58.17;100128.20;1820095;78;21779;-71
2022/11/02 07:08:17;;;;;;;15.60;9.15;;;;;;;7.53;58.05;100125.98;1820692;78;21033;-71
2022/11/02 07:10:43;;;;;;;13.00;8.48;;;;;;;7.59;58.21;100124.22;1820416;78;21404;-70
2022/11/02 07:13:10;;;;;;;14.43;7.85;;;;;;;7.68;58.20;100136.72;1820309;78;20966;-71
2022/11/02 07:15:38;;;;;;;14.73;7.85;;;;;;;7.80;58.12;100136.78;1820237;78;21041;-72
2022/11/02 07:18:05;;;;;;;18.65;7.95;;;;;;;7.87;57.82;100134.92;1820528;78;21815;-71
2022/11/02 07:20:33;;;;;;;12.82;7.42;;;;;;;7.94;57.82;100124.34;1820305;78;21539;-71
2022/11/02 07:23:01;;;;;;;18.40;8.90;;;;;;;8.05;57.96;100116.98;1820388;78;20993;-70
2022/11/02 07:25:31;;;;;;;12.00;7.22;;;;;;;8.15;57.61;100108.77;1820202;78;21002;-72
2022/11/02 07:27:59;;;;;;;14.98;7.75;;;;;;;8.26;57.67;100102.23;1820371;78;21005;-71
2022/11/02 07:30:30;;;;;;;12.18;7.47;;;;;;;8.35;57.18;100103.38;1820289;78;21962;-71
2022/11/02 07:32:56;;;;;;;15.93;7.95;;;;;;;8.44;57.07;100101.86;1820223;78;21495;-71
2022/11/02 07:35:24;;;;;;;12.45;7.58;;;;;;;8.53;56.97;100106.44;1821781;78;20949;-71
2022/11/02 07:37:59;;;;;;;14.80;7.95;;;;;;;8.63;56.92;100098.20;1822853;78;20965;-71
2022/11/02 07:40:28;;;;;;;14.40;8.03;;;;;;;8.73;56.75;100097.03;1815152;78;21027;-71
2022/11/02 07:42:55;;;;;;;14.90;7.95;;;;;;;8.83;56.38;100090.94;1797203;79;22550;-71
2022/11/02 07:45:27;;;;;;;15.53;8.30;;;;;;;8.89;56.16;100092.28;1781746;80;21059;-73
2022/11/02 07:47:54;;;;;;;14.70;8.50;;;;;;;8.95;56.03;100092.27;1782017;80;21407;-71
2022/11/02 07:50:23;;;;;;;14.55;8.45;;;;;;;8.99;55.93;100082.71;1782032;80;21463;-69
2022/11/02 07:52:51;;;;;;;17.23;8.73;;;;;;;9.08;56.14;100082.48;1811252;78;21043;-68
2022/11/02 07:55:22;;;;;;;16.48;9.03;;;;;;;9.17;56.00;100084.40;1822955;78;21047;-71
2022/11/02 07:58:06;;;;;;;17.12;8.75;;;;;;;9.26;55.90;100094.67;1822904;78;21000;-71
2022/11/02 08:00:36;;;;;;;17.23;8.63;;;;;;;9.35;55.60;100090.83;1822915;78;20951;-68
2022/11/02 08:03:04;;;;;;;65.45;13.83;;;;;;;9.45;55.41;100089.14;1822971;78;20988;-68
2022/11/02 08:05:37;;;;;;;24.95;9.88;;;;;;;9.51;55.12;100090.47;1822986;78;20923;-68
2022/11/02 08:08:07;;;;;;;20.88;9.83;;;;;;;9.59;54.87;100088.06;1822868;78;21828;-69
2022/11/02 08:10:35;;;;;;;15.10;9.93;;;;;;;9.66;54.82;100083.98;1822568;78;20975;-68
2022/11/02 08:13:02;;;;;;;19.00;10.72;;;;;;;9.73;54.72;100085.14;1822906;78;21346;-70
2022/11/02 08:15:30;;;;;;;15.72;9.55;;;;;;;9.80;54.48;100088.63;1791339;78;20993;-70
2022/11/02 08:18:06;;;;;;;17.75;10.78;;;;;;;9.86;54.26;100084.18;1823147;78;21008;-70
2022/11/02 08:20:35;;;;;;;18.02;10.30;;;;;;;9.91;54.16;100088.59;1791482;78;21826;-70
2022/11/02 08:23:03;;;;;;;17.67;10.45;;;;;;;9.97;54.08;100083.66;1822720;78;21059;-70
2022/11/02 08:25:29;;;;;;;21.23;11.20;;;;;;;10.06;54.02;100078.59;1822675;78;21035;-70
2022/11/02 08:27:58;;;;;;;19.48;11.05;;;;;;;10.15;53.87;100080.48;1822836;78;21367;-70
2022/11/02 08:30:25;;;;;;;16.75;10.53;;;;;;;10.27;54.06;100076.86;1823217;78;20993;-70
2022/11/02 08:32:52;;;;;;;15.65;10.05;;;;;;;10.40;53.82;100078.82;1822842;78;22609;-70
2022/11/02 08:35:20;;;;;;;18.48;9.43;;;;;;;10.50;53.57;100086.33;1817049;78;21441;-70
2022/11/02 08:37:55;;;;;;;32.08;10.58;;;;;;;10.61;53.34;100081.46;1811652;79;21499;-71
2022/11/02 08:40:21;;;;;;;13.50;7.83;;;;;;;10.74;52.66;100073.36;1811242;79;20982;-71
2022/11/02 08:42:49;;;;;;;81.53;14.50;;;;;;;10.86;52.28;100072.31;1811333;79;21467;-68
2022/11/02 08:45:16;;;;;;;24.72;8.68;;;;;;;10.98;51.78;100073.06;1811626;79;22462;-70
2022/11/02 08:47:43;;;;;;;12.07;7.67;;;;;;;11.10;51.33;100068.06;1811409;79;20938;-69
2022/11/02 08:50:10;;;;;;;16.52;8.00;;;;;;;11.18;50.74;100068.20;1811513;79;21005;-68
2022/11/02 08:52:37;;;;;;;12.13;7.40;;;;;;;11.26;50.61;100068.38;1811596;79;21025;-68
2022/11/02 08:55:05;;;;;;;17.70;8.50;;;;;;;11.33;50.63;100069.53;1811839;79;20970;-68
2022/11/02 08:57:32;;;;;;;17.77;8.68;;;;;;;11.35;50.44;100060.14;1811709;79;22460;-69
2022/11/02 08:59:58;;;;;;;13.20;8.03;;;;;;;11.33;51.01;100067.37;1811365;79;20989;-68
2022/11/02 09:02:25;;;;;;;14.10;8.90;;;;;;;11.36;50.85;100067.09;1811319;79;20938;-68
2022/11/02 09:04:51;;;;;;;424.73;47.20;;;;;;;11.36;50.60;100063.13;1811679;79;20950;-68
2022/11/02 09:07:18;;;;;;;162.07;25.17;;;;;;;11.30;51.06;100067.16;1811679;79;21006;-68
2022/11/02 09:09:45;;;;;;;65.55;15.03;;;;;;;11.34;51.38;100063.27;1811769;79;21831;-70
2022/11/02 09:12:11;;;;;;;20.37;10.10;;;;;;;11.36;51.50;100062.64;1811696;79;21382;-70
2022/11/02 09:14:39;;;;;;;14.93;9.18;;;;;;;11.43;51.55;100068.23;1811435;79;21016;-70
2022/11/02 09:17:07;;;;;;;16.37;10.15;;;;;;;11.49;51.92;100060.27;1811327;79;21029;-70
2022/11/02 09:19:34;;;;;;;1440.45;158.70;;;;;;;11.60;52.05;100061.47;1811392;79;21428;-69
2022/11/02 09:22:01;;;;;;;60.20;15.85;;;;;;;11.79;52.11;100056.22;1811654;79;22420;-69
2022/11/02 09:24:27;;;;;;;21.23;10.45;;;;;;;11.96;51.83;100048.09;1811530;79;21013;-69
2022/11/02 09:26:54;;;;;;;307.40;34.98;;;;;;;12.13;51.50;100058.48;1811603;79;21008;-69
2022/11/02 09:29:20;;;;;;;21.07;10.93;;;;;;;12.32;51.40;100054.50;1811492;79;20958;-69
2022/11/02 09:31:47;;;;;;;16.40;9.63;;;;;;;12.49;49.96;100058.26;1811305;79;21021;-69
2022/11/02 09:34:15;;;;;;;15.03;9.83;;;;;;;12.57;49.20;100050.44;1811468;79;21900;-68
2022/11/02 09:36:41;;;;;;;300.45;40.43;;;;;;;12.64;48.73;100044.89;1806447;79;20987;-69
2022/11/02 09:39:08;;;;;;;27.32;11.05;;;;;;;12.77;48.45;100041.95;1806244;78;21464;-69
2022/11/02 09:41:45;;;;;;;18.65;10.63;;;;;;;12.94;48.15;100041.21;1806487;79;20990;-69
2022/11/02 09:44:19;;;;;;;15.18;9.18;;;;;;;13.10;48.19;100039.24;1806260;79;21017;-69
2022/11/02 09:46:45;;;;;;;15.48;10.30;;;;;;;13.25;47.56;100036.98;1783798;79;21883;-69
2022/11/02 09:49:17;;;;;;;18.62;10.90;;;;;;;13.36;46.84;100020.88;1805941;79;20942;-69
2022/11/02 09:51:57;;;;;;;16.93;10.10;;;;;;;13.42;47.02;100019.80;1806203;79;20958;-69
2022/11/02 09:54:34;;;;;;;17.25;10.55;;;;;;;13.57;46.79;100020.11;1806152;78;20954;-69
2022/11/02 09:57:04;;;;;;;18.32;11.10;;;;;;;13.74;46.33;100020.63;1806271;78;20938;-69
2022/11/02 09:59:31;;;;;;;17.07;10.43;;;;;;;13.89;45.83;100014.78;1806408;78;21700;-69
2022/11/02 10:02:44;;;;;;;19.92;10.60;;;;;;;13.95;45.21;100014.19;1783827;79;21026;-69
2022/11/02 10:05:38;;;;;;;19.15;9.88;;;;;;;13.92;44.99;100012.67;1779313;80;21352;-69
2022/11/02 10:08:25;;;;;;;70.52;15.68;;;;;;;14.00;45.44;100010.09;1779160;80;21044;-69
2022/11/02 10:11:06;;;;;;;17.52;9.78;;;;;;;14.15;44.79;100013.02;1799014;79;20938;-69
2022/11/02 10:13:56;;;;;;;52.27;13.48;;;;;;;14.28;45.01;100005.52;1806191;79;22229;-68
2022/11/02 10:16:49;;;;;;;29.98;10.95;;;;;;;14.41;43.93;99998.95;1806654;79;20942;-69
2022/11/02 10:19:18;;;;;;;23.45;11.25;;;;;;;14.40;43.75;100003.93;1799856;79;20934;-70
2022/11/02 10:21:47;;;;;;;17.45;9.75;;;;;;;14.46;43.67;100001.99;1784501;79;20953;-69
2022/11/02 10:24:26;;;;;;;20.95;9.95;;;;;;;14.56;43.46;99998.73;1806306;79;21460;-70
2022/11/02 10:26:55;;;;;;;17.87;9.80;;;;;;;14.58;43.08;99994.95;1806477;79;21912;-69
2022/11/02 10:29:49;;;;;;;16.95;9.30;;;;;;;14.64;43.07;100000.62;1806278;79;20946;-69
2022/11/02 10:32:16;;;;;;;16.30;9.23;;;;;;;14.71;43.37;99997.67;1806860;79;20997;-69
2022/11/02 10:34:43;;;;;;;259.85;31.95;;;;;;;14.87;42.70;99999.94;1806369;79;20974;-69
2022/11/02 10:37:42;;;;;;;30.92;11.88;;;;;;;15.00;42.09;99998.66;1789331;79;21049;-70
2022/11/02 10:40:15;;;;;;;17.57;9.38;;;;;;;14.96;41.90;99994.63;1811377;79;21969;-69
2022/11/02 10:42:47;;;;;;;15.48;9.38;;;;;;;15.06;42.87;99991.38;1808025;78;20917;-69
2022/11/02 10:45:37;;;;;;;15.45;9.05;;;;;;;15.31;42.30;99992.28;1808644;79;21467;-69
2022/11/02 10:48:22;;;;;;;15.85;9.63;;;;;;;15.53;42.41;99986.84;1809975;79;21051;-68
2022/11/02 10:51:11;;;;;;;15.80;9.45;;;;;;;15.73;41.10;99992.27;1809264;79;20981;-69
2022/11/02 10:53:42;;;;;;;14.93;9.48;;;;;;;15.84;41.85;99986.63;1810249;79;21749;-69
2022/11/02 10:56:21;;;;;;;14.40;9.43;;;;;;;15.92;41.51;99978.64;1809994;79;20996;-69
2022/11/02 10:59:09;;;;;;;20.10;9.93;;;;;;;15.99;40.62;99986.28;1810510;79;21431;-69
2022/11/02 11:01:36;;;;;;;15.80;9.55;;;;;;;15.93;40.87;99989.62;1811769;79;21488;-69
2022/11/02 11:04:20;;;;;;;17.40;10.15;;;;;;;16.02;40.32;99985.14;1811737;79;20954;-68
2022/11/02 11:06:47;;;;;;;16.75;10.10;;;;;;;16.00;40.59;99981.78;1811757;79;21944;-69
2022/11/02 11:09:22;;;;;;;25.40;9.95;;;;;;;15.99;40.26;99980.95;1811583;79;20943;-70
2022/11/02 11:12:05;;;;;;;15.58;9.35;;;;;;;15.99;39.84;99981.45;1811809;79;20962;-69
2022/11/02 11:14:46;;;;;;;17.42;9.55;;;;;;;15.97;40.54;99978.13;1811699;79;21002;-69
2022/11/02 11:17:18;;;;;;;15.63;10.08;;;;;;;15.98;41.04;99977.95;1811632;79;20989;-69
2022/11/02 11:19:50;;;;;;;17.85;10.13;;;;;;;16.20;40.89;99972.95;1811706;79;21837;-70
2022/11/02 11:22:34;;;;;;;17.35;9.78;;;;;;;16.21;39.58;99969.28;1811621;79;20990;-69
2022/11/02 11:25:24;;;;;;;17.92;9.78;;;;;;;16.22;40.36;99966.98;1812036;79;20993;-70
2022/11/02 11:27:58;;;;;;;17.55;9.88;;;;;;;16.45;40.18;99966.60;1811712;79;20946;-70
2022/11/02 11:30:30;;;;;;;16.90;10.20;;;;;;;16.63;39.12;99973.56;1811821;79;21048;-70
2022/11/02 11:32:59;;;;;;;15.18;9.68;;;;;;;16.58;39.28;99968.23;1811829;79;22563;-69
2022/11/02 11:35:37;;;;;;;16.23;10.20;;;;;;;16.55;39.85;99971.24;1811787;79;21219;-70
2022/11/02 11:38:14;;;;;;;15.30;10.43;;;;;;;16.79;39.96;99969.53;1811943;79;20954;-70
2022/11/02 11:40:53;;;;;;;14.63;9.60;;;;;;;17.01;40.08;99960.80;1811209;79;21032;-70
2022/11/02 11:43:27;;;;;;;15.78;9.45;;;;;;;17.29;39.62;99961.67;1803840;77;20996;-74
2022/11/02 11:46:00;;;;;;;17.92;10.28;;;;;;;17.43;39.59;99961.73;1800520;77;21786;-73
2022/11/02 11:48:37;;;;;;;16.65;10.13;;;;;;;17.59;39.15;99959.48;1802491;77;21064;-72
2022/11/02 11:51:24;;;;;;;18.75;10.15;;;;;;;17.82;38.70;99961.34;1802738;77;21049;-72